sensor_id;sensor_type;location;lat;lon;timestamp;P1;durP1;ratioP1;P2;durP2;ratioP2
68923;SDS011;55961;52.156;20.942;2022-11-15T00:00:10;37.20;;;17.57;;
68923;SDS011;55961;52.156;20.942;2022-11-15T00:02:56;41.38;;;18.42;;
68923;SDS011;55961;52.156;20.942;2022-11-15T00:05:22;44.22;;;16.50;;
68923;SDS011;55961;52.156;20.942;2022-11-15T00:07:48;37.23;;;17.40;;
68923;SDS011;55961;52.156;20.942;2022-11-15T00:10:13;47.78;;;18.52;;
68923;SDS011;55961;52.156;20.942;2022-11-15T00:12:39;47.83;;;20.67;;
68923;SDS011;55961;52.156;20.942;2022-11-15T00:15:05;48.97;;;18.57;;
68923;SDS011;55961;52.156;20.942;2022-11-15T00:17:32;47.15;;;19.60;;
68923;SDS011;55961;52.156;20.942;2022-11-15T00:19:58;46.60;;;20.47;;
68923;SDS011;55961;52.156;20.942;2022-11-15T00:22:24;46.93;;;18.40;;
68923;SDS011;55961;52.156;20.942;2022-11-15T00:24:49;49.85;;;20.30;;
68923;SDS011;55961;52.156;20.942;2022-11-15T00:27:15;52.17;;;19.35;;
68923;SDS011;55961;52.156;20.942;2022-11-15T00:29:41;44.73;;;20.27;;
68923;SDS011;55961;52.156;20.942;2022-11-15T00:32:09;46.95;;;18.95;;
68923;SDS011;55961;52.156;20.942;2022-11-15T00:34:35;48.15;;;20.48;;
68923;SDS011;55961;52.156;20.942;2022-11-15T00:37:01;45.40;;;18.50;;
68923;SDS011;55961;52.156;20.942;2022-11-15T00:39:27;47.27;;;18.70;;
68923;SDS011;55961;52.156;20.942;2022-11-15T00:41:53;42.28;;;17.48;;
68923;SDS011;55961;52.156;20.942;2022-11-15T00:44:19;46.78;;;18.65;;
68923;SDS011;55961;52.156;20.942;2022-11-15T00:46:46;48.63;;;19.25;;
68923;SDS011;55961;52.156;20.942;2022-11-15T00:49:12;48.30;;;19.93;;
68923;SDS011;55961;52.156;20.942;2022-11-15T00:51:56;42.15;;;16.90;;
68923;SDS011;55961;52.156;20.942;2022-11-15T00:54:22;38.43;;;17.20;;
68923;SDS011;55961;52.156;20.942;2022-11-15T00:56:48;43.70;;;17.83;;
68923;SDS011;55961;52.156;20.942;2022-11-15T00:59:14;43.72;;;18.48;;
68923;SDS011;55961;52.156;20.942;2022-11-15T01:01:40;45.70;;;17.60;;
68923;SDS011;55961;52.156;20.942;2022-11-15T01:04:06;39.97;;;17.50;;
68923;SDS011;55961;52.156;20.942;2022-11-15T01:06:32;50.17;;;18.33;;
68923;SDS011;55961;52.156;20.942;2022-11-15T01:08:58;39.07;;;16.83;;
68923;SDS011;55961;52.156;20.942;2022-11-15T01:11:23;40.17;;;16.77;;
68923;SDS011;55961;52.156;20.942;2022-11-15T01:13:49;45.72;;;17.50;;
68923;SDS011;55961;52.156;20.942;2022-11-15T01:16:16;43.97;;;17.40;;
68923;SDS011;55961;52.156;20.942;2022-11-15T01:18:44;41.85;;;17.35;;
68923;SDS011;55961;52.156;20.942;2022-11-15T01:21:13;44.03;;;17.60;;
68923;SDS011;55961;52.156;20.942;2022-11-15T01:23:40;42.53;;;17.58;;
68923;SDS011;55961;52.156;20.942;2022-11-15T01:26:07;41.63;;;17.60;;
68923;SDS011;55961;52.156;20.942;2022-11-15T01:28:35;44.77;;;17.80;;
68923;SDS011;55961;52.156;20.942;2022-11-15T01:31:04;43.67;;;16.83;;
68923;SDS011;55961;52.156;20.942;2022-11-15T01:33:33;41.30;;;16.52;;
68923;SDS011;55961;52.156;20.942;2022-11-15T01:36:04;40.50;;;16.60;;
68923;SDS011;55961;52.156;20.942;2022-11-15T01:38:32;42.63;;;17.05;;
68923;SDS011;55961;52.156;20.942;2022-11-15T01:40:58;38.37;;;16.23;;
68923;SDS011;55961;52.156;20.942;2022-11-15T01:43:28;41.67;;;16.90;;
68923;SDS011;55961;52.156;20.942;2022-11-15T01:46:00;44.30;;;17.42;;
68923;SDS011;55961;52.156;20.942;2022-11-15T01:48:34;48.50;;;18.52;;
68923;SDS011;55961;52.156;20.942;2022-11-15T01:51:00;43.93;;;16.93;;
68923;SDS011;55961;52.156;20.942;2022-11-15T01:53:30;44.53;;;17.85;;
68923;SDS011;55961;52.156;20.942;2022-11-15T01:55:59;41.42;;;17.08;;
68923;SDS011;55961;52.156;20.942;2022-11-15T01:58:29;48.80;;;19.08;;
68923;SDS011;55961;52.156;20.942;2022-11-15T02:00:55;46.65;;;19.02;;
68923;SDS011;55961;52.156;20.942;2022-11-15T02:03:21;45.60;;;19.10;;
68923;SDS011;55961;52.156;20.942;2022-11-15T02:05:52;52.92;;;21.55;;
68923;SDS011;55961;52.156;20.942;2022-11-15T02:08:18;49.65;;;20.25;;
68923;SDS011;55961;52.156;20.942;2022-11-15T02:10:47;47.30;;;19.20;;
68923;SDS011;55961;52.156;20.942;2022-11-15T02:13:14;47.10;;;18.97;;
68923;SDS011;55961;52.156;20.942;2022-11-15T02:15:48;47.72;;;20.35;;
68923;SDS011;55961;52.156;20.942;2022-11-15T02:18:38;48.17;;;19.40;;
68923;SDS011;55961;52.156;20.942;2022-11-15T02:26:30;50.05;;;20.02;;
68923;SDS011;55961;52.156;20.942;2022-11-15T02:29:09;53.72;;;20.27;;
68923;SDS011;55961;52.156;20.942;2022-11-15T02:31:51;55.35;;;21.70;;
68923;SDS011;55961;52.156;20.942;2022-11-15T02:34:32;57.50;;;22.17;;
68923;SDS011;55961;52.156;20.942;2022-11-15T02:39:56;48.35;;;18.88;;
68923;SDS011;55961;52.156;20.942;2022-11-15T02:42:35;53.30;;;20.83;;
68923;SDS011;55961;52.156;20.942;2022-11-15T02:45:27;51.72;;;20.08;;
68923;SDS011;55961;52.156;20.942;2022-11-15T02:47:56;51.53;;;19.58;;
68923;SDS011;55961;52.156;20.942;2022-11-15T02:50:25;48.67;;;19.03;;
68923;SDS011;55961;52.156;20.942;2022-11-15T02:52:54;53.47;;;21.20;;
68923;SDS011;55961;52.156;20.942;2022-11-15T02:57:56;52.65;;;20.98;;
68923;SDS011;55961;52.156;20.942;2022-11-15T03:11:35;58.90;;;20.55;;
68923;SDS011;55961;52.156;20.942;2022-11-15T03:14:12;56.88;;;21.13;;
68923;SDS011;55961;52.156;20.942;2022-11-15T03:16:54;47.07;;;19.27;;
68923;SDS011;55961;52.156;20.942;2022-11-15T03:19:34;53.95;;;19.05;;
68923;SDS011;55961;52.156;20.942;2022-11-15T03:22:15;51.45;;;19.33;;
68923;SDS011;55961;52.156;20.942;2022-11-15T03:24:45;50.78;;;20.10;;
68923;SDS011;55961;52.156;20.942;2022-11-15T03:27:17;56.75;;;22.90;;
68923;SDS011;55961;52.156;20.942;2022-11-15T03:29:50;57.50;;;20.77;;
68923;SDS011;55961;52.156;20.942;2022-11-15T03:32:25;52.25;;;19.52;;
68923;SDS011;55961;52.156;20.942;2022-11-15T03:37:54;55.13;;;19.90;;
68923;SDS011;55961;52.156;20.942;2022-11-15T03:40:38;56.38;;;20.60;;
68923;SDS011;55961;52.156;20.942;2022-11-15T03:43:22;44.43;;;16.57;;
68923;SDS011;55961;52.156;20.942;2022-11-15T03:48:47;47.83;;;18.98;;
68923;SDS011;55961;52.156;20.942;2022-11-15T03:51:16;47.40;;;18.05;;
68923;SDS011;55961;52.156;20.942;2022-11-15T03:53:43;44.53;;;17.25;;
68923;SDS011;55961;52.156;20.942;2022-11-15T03:56:09;50.23;;;17.87;;
68923;SDS011;55961;52.156;20.942;2022-11-15T03:58:35;46.03;;;17.60;;
68923;SDS011;55961;52.156;20.942;2022-11-15T04:01:01;50.42;;;18.38;;
68923;SDS011;55961;52.156;20.942;2022-11-15T04:03:27;54.57;;;20.73;;
68923;SDS011;55961;52.156;20.942;2022-11-15T04:05:53;54.67;;;20.23;;
68923;SDS011;55961;52.156;20.942;2022-11-15T04:08:18;51.70;;;19.60;;
68923;SDS011;55961;52.156;20.942;2022-11-15T04:10:44;55.50;;;19.37;;
68923;SDS011;55961;52.156;20.942;2022-11-15T04:13:10;55.50;;;17.30;;
68923;SDS011;55961;52.156;20.942;2022-11-15T04:15:36;42.67;;;16.15;;
68923;SDS011;55961;52.156;20.942;2022-11-15T04:18:02;52.83;;;18.23;;
68923;SDS011;55961;52.156;20.942;2022-11-15T04:20:29;50.95;;;17.35;;
68923;SDS011;55961;52.156;20.942;2022-11-15T04:23:15;51.50;;;19.83;;
68923;SDS011;55961;52.156;20.942;2022-11-15T04:26:05;63.58;;;21.85;;
68923;SDS011;55961;52.156;20.942;2022-11-15T04:28:37;59.78;;;21.67;;
68923;SDS011;55961;52.156;20.942;2022-11-15T04:31:26;66.07;;;25.30;;
68923;SDS011;55961;52.156;20.942;2022-11-15T04:33:52;59.00;;;21.42;;
68923;SDS011;55961;52.156;20.942;2022-11-15T04:36:19;43.60;;;14.50;;
68923;SDS011;55961;52.156;20.942;2022-11-15T04:39:04;52.17;;;16.63;;
68923;SDS011;55961;52.156;20.942;2022-11-15T04:41:30;61.35;;;21.50;;
68923;SDS011;55961;52.156;20.942;2022-11-15T04:43:56;59.97;;;17.90;;
68923;SDS011;55961;52.156;20.942;2022-11-15T04:46:22;70.20;;;21.02;;
68923;SDS011;55961;52.156;20.942;2022-11-15T04:48:49;63.35;;;20.02;;
68923;SDS011;55961;52.156;20.942;2022-11-15T04:51:15;64.13;;;19.88;;
68923;SDS011;55961;52.156;20.942;2022-11-15T04:53:41;62.90;;;18.57;;
68923;SDS011;55961;52.156;20.942;2022-11-15T04:56:07;53.90;;;19.08;;
68923;SDS011;55961;52.156;20.942;2022-11-15T04:58:33;57.35;;;19.67;;
68923;SDS011;55961;52.156;20.942;2022-11-15T05:01:09;60.45;;;19.63;;
68923;SDS011;55961;52.156;20.942;2022-11-15T05:03:37;51.70;;;18.13;;
68923;SDS011;55961;52.156;20.942;2022-11-15T05:06:21;46.47;;;14.90;;
68923;SDS011;55961;52.156;20.942;2022-11-15T05:08:47;57.78;;;19.27;;
68923;SDS011;55961;52.156;20.942;2022-11-15T05:11:13;57.33;;;22.02;;
68923;SDS011;55961;52.156;20.942;2022-11-15T05:13:39;60.80;;;20.95;;
68923;SDS011;55961;52.156;20.942;2022-11-15T05:16:05;59.93;;;21.03;;
68923;SDS011;55961;52.156;20.942;2022-11-15T05:18:31;65.18;;;20.83;;
68923;SDS011;55961;52.156;20.942;2022-11-15T05:21:07;49.00;;;15.60;;
68923;SDS011;55961;52.156;20.942;2022-11-15T05:23:34;56.97;;;17.08;;
68923;SDS011;55961;52.156;20.942;2022-11-15T05:26:01;51.57;;;16.27;;
68923;SDS011;55961;52.156;20.942;2022-11-15T05:28:27;67.03;;;17.83;;
68923;SDS011;55961;52.156;20.942;2022-11-15T05:30:59;63.47;;;19.50;;
68923;SDS011;55961;52.156;20.942;2022-11-15T05:33:29;57.38;;;21.60;;
68923;SDS011;55961;52.156;20.942;2022-11-15T05:35:57;72.28;;;20.58;;
68923;SDS011;55961;52.156;20.942;2022-11-15T05:38:29;79.37;;;21.27;;
68923;SDS011;55961;52.156;20.942;2022-11-15T05:40:55;66.28;;;18.73;;
68923;SDS011;55961;52.156;20.942;2022-11-15T05:43:21;61.80;;;19.95;;
68923;SDS011;55961;52.156;20.942;2022-11-15T05:45:48;62.13;;;17.67;;
68923;SDS011;55961;52.156;20.942;2022-11-15T05:48:14;65.72;;;20.10;;
68923;SDS011;55961;52.156;20.942;2022-11-15T05:50:42;74.07;;;19.90;;
68923;SDS011;55961;52.156;20.942;2022-11-15T05:53:10;63.85;;;20.05;;
68923;SDS011;55961;52.156;20.942;2022-11-15T05:55:39;70.45;;;20.92;;
68923;SDS011;55961;52.156;20.942;2022-11-15T05:58:06;54.83;;;16.85;;
68923;SDS011;55961;52.156;20.942;2022-11-15T06:00:32;61.58;;;17.92;;
68923;SDS011;55961;52.156;20.942;2022-11-15T06:02:58;56.47;;;18.37;;
68923;SDS011;55961;52.156;20.942;2022-11-15T06:05:24;62.80;;;16.80;;
68923;SDS011;55961;52.156;20.942;2022-11-15T06:07:50;56.53;;;16.73;;
68923;SDS011;55961;52.156;20.942;2022-11-15T06:10:17;51.80;;;17.30;;
68923;SDS011;55961;52.156;20.942;2022-11-15T06:12:42;52.53;;;15.63;;
68923;SDS011;55961;52.156;20.942;2022-11-15T06:15:08;65.30;;;16.85;;
68923;SDS011;55961;52.156;20.942;2022-11-15T06:17:34;56.35;;;16.15;;
68923;SDS011;55961;52.156;20.942;2022-11-15T06:20:00;59.53;;;16.45;;
68923;SDS011;55961;52.156;20.942;2022-11-15T06:22:26;57.50;;;13.83;;
68923;SDS011;55961;52.156;20.942;2022-11-15T06:24:52;58.88;;;15.93;;
68923;SDS011;55961;52.156;20.942;2022-11-15T06:27:18;47.00;;;14.40;;
68923;SDS011;55961;52.156;20.942;2022-11-15T06:29:44;48.08;;;15.52;;
68923;SDS011;55961;52.156;20.942;2022-11-15T06:32:09;43.25;;;14.30;;
68923;SDS011;55961;52.156;20.942;2022-11-15T06:34:35;38.50;;;12.27;;
68923;SDS011;55961;52.156;20.942;2022-11-15T06:37:02;39.97;;;13.53;;
68923;SDS011;55961;52.156;20.942;2022-11-15T06:39:28;42.22;;;14.20;;
68923;SDS011;55961;52.156;20.942;2022-11-15T06:41:53;41.13;;;13.57;;
68923;SDS011;55961;52.156;20.942;2022-11-15T06:44:19;42.38;;;13.63;;
68923;SDS011;55961;52.156;20.942;2022-11-15T06:46:45;36.03;;;13.52;;
68923;SDS011;55961;52.156;20.942;2022-11-15T06:49:11;40.83;;;13.90;;
68923;SDS011;55961;52.156;20.942;2022-11-15T06:51:37;43.70;;;14.43;;
68923;SDS011;55961;52.156;20.942;2022-11-15T06:54:03;41.17;;;14.07;;
68923;SDS011;55961;52.156;20.942;2022-11-15T06:56:29;38.93;;;14.50;;
68923;SDS011;55961;52.156;20.942;2022-11-15T06:58:55;39.08;;;13.30;;
68923;SDS011;55961;52.156;20.942;2022-11-15T07:01:20;38.72;;;13.65;;
68923;SDS011;55961;52.156;20.942;2022-11-15T07:03:46;40.42;;;13.05;;
68923;SDS011;55961;52.156;20.942;2022-11-15T07:06:12;41.10;;;13.67;;
68923;SDS011;55961;52.156;20.942;2022-11-15T07:08:38;29.83;;;12.25;;
68923;SDS011;55961;52.156;20.942;2022-11-15T07:11:05;24.57;;;8.47;;
68923;SDS011;55961;52.156;20.942;2022-11-15T07:13:32;37.97;;;13.50;;
68923;SDS011;55961;52.156;20.942;2022-11-15T07:16:02;31.30;;;10.35;;
68923;SDS011;55961;52.156;20.942;2022-11-15T07:18:34;30.13;;;11.07;;
68923;SDS011;55961;52.156;20.942;2022-11-15T07:21:04;38.67;;;13.55;;
68923;SDS011;55961;52.156;20.942;2022-11-15T07:23:31;34.53;;;12.27;;
68923;SDS011;55961;52.156;20.942;2022-11-15T07:25:57;31.90;;;12.90;;
68923;SDS011;55961;52.156;20.942;2022-11-15T07:28:25;33.67;;;12.45;;
68923;SDS011;55961;52.156;20.942;2022-11-15T07:30:51;33.97;;;11.52;;
68923;SDS011;55961;52.156;20.942;2022-11-15T07:33:17;31.75;;;11.18;;
68923;SDS011;55961;52.156;20.942;2022-11-15T07:35:43;36.60;;;13.17;;
68923;SDS011;55961;52.156;20.942;2022-11-15T07:38:11;34.47;;;12.88;;
68923;SDS011;55961;52.156;20.942;2022-11-15T07:40:37;29.60;;;10.98;;
68923;SDS011;55961;52.156;20.942;2022-11-15T07:43:04;25.07;;;9.50;;
68923;SDS011;55961;52.156;20.942;2022-11-15T07:45:31;31.42;;;10.82;;
68923;SDS011;55961;52.156;20.942;2022-11-15T07:47:59;32.00;;;12.40;;
68923;SDS011;55961;52.156;20.942;2022-11-15T07:50:26;35.85;;;12.60;;
68923;SDS011;55961;52.156;20.942;2022-11-15T07:52:54;35.67;;;12.55;;
68923;SDS011;55961;52.156;20.942;2022-11-15T07:55:24;35.97;;;12.40;;
68923;SDS011;55961;52.156;20.942;2022-11-15T07:57:52;38.92;;;13.43;;
68923;SDS011;55961;52.156;20.942;2022-11-15T08:00:18;37.45;;;13.35;;
68923;SDS011;55961;52.156;20.942;2022-11-15T08:02:45;39.58;;;13.65;;
68923;SDS011;55961;52.156;20.942;2022-11-15T08:05:11;40.50;;;14.63;;
68923;SDS011;55961;52.156;20.942;2022-11-15T08:07:37;34.93;;;12.13;;
68923;SDS011;55961;52.156;20.942;2022-11-15T08:10:03;36.95;;;12.77;;
68923;SDS011;55961;52.156;20.942;2022-11-15T08:12:31;32.30;;;11.77;;
68923;SDS011;55961;52.156;20.942;2022-11-15T08:14:57;33.17;;;12.63;;
68923;SDS011;55961;52.156;20.942;2022-11-15T08:17:24;37.03;;;13.95;;
68923;SDS011;55961;52.156;20.942;2022-11-15T08:19:49;33.73;;;13.57;;
68923;SDS011;55961;52.156;20.942;2022-11-15T08:22:16;31.55;;;11.35;;
68923;SDS011;55961;52.156;20.942;2022-11-15T08:24:42;36.67;;;12.90;;
68923;SDS011;55961;52.156;20.942;2022-11-15T08:27:08;39.22;;;13.63;;
68923;SDS011;55961;52.156;20.942;2022-11-15T08:29:43;33.33;;;12.10;;
68923;SDS011;55961;52.156;20.942;2022-11-15T08:32:09;34.70;;;13.23;;
68923;SDS011;55961;52.156;20.942;2022-11-15T08:34:36;31.80;;;11.63;;
68923;SDS011;55961;52.156;20.942;2022-11-15T08:37:03;37.00;;;14.05;;
68923;SDS011;55961;52.156;20.942;2022-11-15T08:39:29;38.72;;;12.60;;
68923;SDS011;55961;52.156;20.942;2022-11-15T08:41:55;34.45;;;13.20;;
68923;SDS011;55961;52.156;20.942;2022-11-15T08:44:21;31.90;;;13.00;;
68923;SDS011;55961;52.156;20.942;2022-11-15T08:46:49;28.88;;;11.15;;
68923;SDS011;55961;52.156;20.942;2022-11-15T08:49:15;29.75;;;11.93;;
68923;SDS011;55961;52.156;20.942;2022-11-15T08:51:41;37.78;;;13.30;;
68923;SDS011;55961;52.156;20.942;2022-11-15T08:54:07;35.63;;;13.77;;
68923;SDS011;55961;52.156;20.942;2022-11-15T08:56:33;36.30;;;12.82;;
68923;SDS011;55961;52.156;20.942;2022-11-15T08:58:59;30.05;;;11.85;;
68923;SDS011;55961;52.156;20.942;2022-11-15T09:01:25;33.40;;;13.13;;
68923;SDS011;55961;52.156;20.942;2022-11-15T09:03:51;37.25;;;13.07;;
68923;SDS011;55961;52.156;20.942;2022-11-15T09:06:17;31.85;;;12.02;;
68923;SDS011;55961;52.156;20.942;2022-11-15T09:08:42;31.33;;;13.80;;
68923;SDS011;55961;52.156;20.942;2022-11-15T09:11:09;38.33;;;14.57;;
68923;SDS011;55961;52.156;20.942;2022-11-15T09:13:36;34.03;;;12.77;;
68923;SDS011;55961;52.156;20.942;2022-11-15T09:16:02;38.05;;;13.93;;
68923;SDS011;55961;52.156;20.942;2022-11-15T09:18:29;35.40;;;14.23;;
68923;SDS011;55961;52.156;20.942;2022-11-15T09:20:58;35.70;;;14.10;;
68923;SDS011;55961;52.156;20.942;2022-11-15T09:23:24;38.13;;;12.55;;
68923;SDS011;55961;52.156;20.942;2022-11-15T09:25:51;26.05;;;10.32;;
68923;SDS011;55961;52.156;20.942;2022-11-15T09:28:17;39.63;;;15.98;;
68923;SDS011;55961;52.156;20.942;2022-11-15T09:30:43;33.57;;;13.33;;
68923;SDS011;55961;52.156;20.942;2022-11-15T09:33:10;36.72;;;13.68;;
68923;SDS011;55961;52.156;20.942;2022-11-15T09:35:37;35.65;;;14.55;;
68923;SDS011;55961;52.156;20.942;2022-11-15T09:38:03;32.72;;;13.90;;
68923;SDS011;55961;52.156;20.942;2022-11-15T09:40:30;34.93;;;13.27;;
68923;SDS011;55961;52.156;20.942;2022-11-15T09:45:52;29.30;;;12.85;;
68923;SDS011;55961;52.156;20.942;2022-11-15T09:48:43;37.25;;;15.40;;
68923;SDS011;55961;52.156;20.942;2022-11-15T09:54:31;37.13;;;14.13;;
68923;SDS011;55961;52.156;20.942;2022-11-15T09:57:20;30.63;;;12.05;;
68923;SDS011;55961;52.156;20.942;2022-11-15T10:00:04;34.22;;;13.65;;
68923;SDS011;55961;52.156;20.942;2022-11-15T10:02:54;40.05;;;16.25;;
68923;SDS011;55961;52.156;20.942;2022-11-15T10:05:23;36.35;;;15.18;;
68923;SDS011;55961;52.156;20.942;2022-11-15T10:10:41;38.85;;;14.57;;
68923;SDS011;55961;52.156;20.942;2022-11-15T10:13:33;34.35;;;14.20;;
68923;SDS011;55961;52.156;20.942;2022-11-15T10:24:18;37.15;;;15.23;;
68923;SDS011;55961;52.156;20.942;2022-11-15T10:26:48;38.55;;;15.90;;
68923;SDS011;55961;52.156;20.942;2022-11-15T10:29:18;34.63;;;14.20;;
68923;SDS011;55961;52.156;20.942;2022-11-15T10:31:45;31.20;;;11.82;;
68923;SDS011;55961;52.156;20.942;2022-11-15T10:36:37;34.35;;;15.13;;
68923;SDS011;55961;52.156;20.942;2022-11-15T10:39:03;43.10;;;16.45;;
68923;SDS011;55961;52.156;20.942;2022-11-15T10:49:23;42.65;;;16.20;;
68923;SDS011;55961;52.156;20.942;2022-11-15T10:51:51;37.25;;;15.18;;
68923;SDS011;55961;52.156;20.942;2022-11-15T10:54:27;37.10;;;15.70;;
68923;SDS011;55961;52.156;20.942;2022-11-15T10:57:48;37.75;;;15.25;;
68923;SDS011;55961;52.156;20.942;2022-11-15T11:00:03;40.10;;;16.77;;
68923;SDS011;55961;52.156;20.942;2022-11-15T11:02:38;45.28;;;18.33;;
68923;SDS011;55961;52.156;20.942;2022-11-15T11:10:57;40.95;;;15.55;;
68923;SDS011;55961;52.156;20.942;2022-11-15T11:13:25;34.13;;;14.98;;
68923;SDS011;55961;52.156;20.942;2022-11-15T11:21:40;44.73;;;16.57;;
68923;SDS011;55961;52.156;20.942;2022-11-15T11:24:15;41.25;;;17.00;;
68923;SDS011;55961;52.156;20.942;2022-11-15T11:38:43;42.42;;;17.33;;
68923;SDS011;55961;52.156;20.942;2022-11-15T11:41:06;36.25;;;16.83;;
68923;SDS011;55961;52.156;20.942;2022-11-15T11:43:56;42.63;;;17.38;;
68923;SDS011;55961;52.156;20.942;2022-11-15T11:46:52;41.75;;;17.70;;
68923;SDS011;55961;52.156;20.942;2022-11-15T11:49:38;41.60;;;18.23;;
68923;SDS011;55961;52.156;20.942;2022-11-15T11:52:16;39.25;;;16.55;;
68923;SDS011;55961;52.156;20.942;2022-11-15T11:55:03;38.53;;;16.48;;
68923;SDS011;55961;52.156;20.942;2022-11-15T12:00:21;43.42;;;18.55;;
68923;SDS011;55961;52.156;20.942;2022-11-15T12:11:17;37.95;;;17.13;;
68923;SDS011;55961;52.156;20.942;2022-11-15T12:13:55;35.47;;;16.58;;
68923;SDS011;55961;52.156;20.942;2022-11-15T12:16:30;36.00;;;15.93;;
68923;SDS011;55961;52.156;20.942;2022-11-15T12:19:01;36.83;;;16.52;;
68923;SDS011;55961;52.156;20.942;2022-11-15T12:21:46;38.67;;;17.88;;
68923;SDS011;55961;52.156;20.942;2022-11-15T12:24:37;36.33;;;17.08;;
68923;SDS011;55961;52.156;20.942;2022-11-15T12:27:15;33.15;;;15.98;;
68923;SDS011;55961;52.156;20.942;2022-11-15T12:29:44;36.97;;;16.57;;
68923;SDS011;55961;52.156;20.942;2022-11-15T12:32:25;33.47;;;16.13;;
68923;SDS011;55961;52.156;20.942;2022-11-15T12:35:03;38.05;;;16.85;;
68923;SDS011;55961;52.156;20.942;2022-11-15T12:40:20;36.17;;;17.20;;
68923;SDS011;55961;52.156;20.942;2022-11-15T12:45:42;37.63;;;16.52;;
68923;SDS011;55961;52.156;20.942;2022-11-15T12:58:46;40.50;;;18.88;;
68923;SDS011;55961;52.156;20.942;2022-11-15T13:06:47;45.67;;;19.98;;
68923;SDS011;55961;52.156;20.942;2022-11-15T13:14:58;41.25;;;18.45;;
68923;SDS011;55961;52.156;20.942;2022-11-15T13:25:18;43.35;;;18.88;;
68923;SDS011;55961;52.156;20.942;2022-11-15T13:27:46;39.55;;;18.10;;
68923;SDS011;55961;52.156;20.942;2022-11-15T13:30:35;42.35;;;19.20;;
68923;SDS011;55961;52.156;20.942;2022-11-15T13:33:01;47.70;;;20.63;;
68923;SDS011;55961;52.156;20.942;2022-11-15T13:35:36;43.63;;;19.83;;
68923;SDS011;55961;52.156;20.942;2022-11-15T13:38:04;44.88;;;21.35;;
68923;SDS011;55961;52.156;20.942;2022-11-15T13:40:34;46.97;;;19.40;;
68923;SDS011;55961;52.156;20.942;2022-11-15T13:43:23;47.35;;;20.58;;
68923;SDS011;55961;52.156;20.942;2022-11-15T13:46:06;47.72;;;21.00;;
68923;SDS011;55961;52.156;20.942;2022-11-15T13:48:35;47.03;;;20.13;;
68923;SDS011;55961;52.156;20.942;2022-11-15T13:51:03;42.97;;;19.90;;
68923;SDS011;55961;52.156;20.942;2022-11-15T13:53:32;45.28;;;20.58;;
68923;SDS011;55961;52.156;20.942;2022-11-15T13:55:59;47.83;;;20.40;;
68923;SDS011;55961;52.156;20.942;2022-11-15T13:58:25;46.17;;;20.65;;
68923;SDS011;55961;52.156;20.942;2022-11-15T14:00:59;45.93;;;20.13;;
68923;SDS011;55961;52.156;20.942;2022-11-15T14:03:28;45.70;;;20.73;;
68923;SDS011;55961;52.156;20.942;2022-11-15T14:06:10;45.55;;;19.27;;
68923;SDS011;55961;52.156;20.942;2022-11-15T14:08:41;51.30;;;22.35;;
68923;SDS011;55961;52.156;20.942;2022-11-15T14:11:23;48.80;;;21.52;;
68923;SDS011;55961;52.156;20.942;2022-11-15T14:14:03;46.17;;;20.27;;
68923;SDS011;55961;52.156;20.942;2022-11-15T14:16:37;44.00;;;19.90;;
68923;SDS011;55961;52.156;20.942;2022-11-15T14:19:03;47.80;;;21.02;;
68923;SDS011;55961;52.156;20.942;2022-11-15T14:21:31;41.60;;;19.02;;
68923;SDS011;55961;52.156;20.942;2022-11-15T14:24:17;40.83;;;19.30;;
68923;SDS011;55961;52.156;20.942;2022-11-15T14:26:45;54.72;;;21.02;;
68923;SDS011;55961;52.156;20.942;2022-11-15T14:31:54;46.88;;;19.38;;
68923;SDS011;55961;52.156;20.942;2022-11-15T14:34:38;54.38;;;22.38;;
68923;SDS011;55961;52.156;20.942;2022-11-15T14:37:04;55.17;;;22.73;;
68923;SDS011;55961;52.156;20.942;2022-11-15T14:39:30;75.93;;;27.33;;
68923;SDS011;55961;52.156;20.942;2022-11-15T14:41:56;71.43;;;26.35;;
68923;SDS011;55961;52.156;20.942;2022-11-15T14:44:22;50.63;;;21.57;;
68923;SDS011;55961;52.156;20.942;2022-11-15T14:46:47;52.75;;;22.05;;
68923;SDS011;55961;52.156;20.942;2022-11-15T14:49:13;52.65;;;21.55;;
68923;SDS011;55961;52.156;20.942;2022-11-15T14:51:40;60.63;;;22.23;;
68923;SDS011;55961;52.156;20.942;2022-11-15T14:54:09;76.60;;;28.10;;
68923;SDS011;55961;52.156;20.942;2022-11-15T14:56:36;56.45;;;22.33;;
68923;SDS011;55961;52.156;20.942;2022-11-15T14:59:01;46.47;;;21.33;;
68923;SDS011;55961;52.156;20.942;2022-11-15T15:01:27;48.80;;;20.37;;
68923;SDS011;55961;52.156;20.942;2022-11-15T15:03:53;49.22;;;20.73;;
68923;SDS011;55961;52.156;20.942;2022-11-15T15:06:22;50.63;;;21.40;;
68923;SDS011;55961;52.156;20.942;2022-11-15T15:08:48;67.15;;;25.20;;
68923;SDS011;55961;52.156;20.942;2022-11-15T15:11:25;62.43;;;26.37;;
68923;SDS011;55961;52.156;20.942;2022-11-15T15:13:53;52.83;;;24.13;;
68923;SDS011;55961;52.156;20.942;2022-11-15T15:16:25;51.33;;;23.25;;
68923;SDS011;55961;52.156;20.942;2022-11-15T15:18:51;59.47;;;26.60;;
68923;SDS011;55961;52.156;20.942;2022-11-15T15:23:43;46.30;;;21.10;;
68923;SDS011;55961;52.156;20.942;2022-11-15T15:26:09;46.40;;;19.05;;
68923;SDS011;55961;52.156;20.942;2022-11-15T15:28:35;53.20;;;23.13;;
68923;SDS011;55961;52.156;20.942;2022-11-15T15:31:01;54.75;;;22.58;;
68923;SDS011;55961;52.156;20.942;2022-11-15T15:33:27;56.25;;;24.13;;
68923;SDS011;55961;52.156;20.942;2022-11-15T15:35:53;54.75;;;23.02;;
68923;SDS011;55961;52.156;20.942;2022-11-15T15:38:19;44.90;;;20.40;;
68923;SDS011;55961;52.156;20.942;2022-11-15T15:40:45;54.92;;;22.35;;
68923;SDS011;55961;52.156;20.942;2022-11-15T15:43:11;66.72;;;28.88;;
68923;SDS011;55961;52.156;20.942;2022-11-15T15:45:37;75.23;;;27.73;;
68923;SDS011;55961;52.156;20.942;2022-11-15T15:48:04;62.53;;;24.63;;
68923;SDS011;55961;52.156;20.942;2022-11-15T15:50:33;57.95;;;23.42;;
68923;SDS011;55961;52.156;20.942;2022-11-15T15:53:01;67.93;;;25.77;;
68923;SDS011;55961;52.156;20.942;2022-11-15T15:55:30;62.72;;;24.00;;
68923;SDS011;55961;52.156;20.942;2022-11-15T15:57:57;55.50;;;22.23;;
68923;SDS011;55961;52.156;20.942;2022-11-15T16:00:24;52.47;;;22.45;;
68923;SDS011;55961;52.156;20.942;2022-11-15T16:02:50;54.75;;;23.35;;
68923;SDS011;55961;52.156;20.942;2022-11-15T16:05:17;55.22;;;22.58;;
68923;SDS011;55961;52.156;20.942;2022-11-15T16:07:43;53.47;;;21.83;;
68923;SDS011;55961;52.156;20.942;2022-11-15T16:10:17;56.45;;;22.83;;
68923;SDS011;55961;52.156;20.942;2022-11-15T16:12:43;51.95;;;21.60;;
68923;SDS011;55961;52.156;20.942;2022-11-15T16:15:09;52.00;;;21.00;;
68923;SDS011;55961;52.156;20.942;2022-11-15T16:17:37;53.88;;;22.33;;
68923;SDS011;55961;52.156;20.942;2022-11-15T16:20:06;55.20;;;21.73;;
68923;SDS011;55961;52.156;20.942;2022-11-15T16:22:32;61.50;;;24.85;;
68923;SDS011;55961;52.156;20.942;2022-11-15T16:24:58;58.97;;;23.50;;
68923;SDS011;55961;52.156;20.942;2022-11-15T16:27:23;59.03;;;23.57;;
68923;SDS011;55961;52.156;20.942;2022-11-15T16:29:49;60.13;;;23.10;;
68923;SDS011;55961;52.156;20.942;2022-11-15T16:32:15;61.92;;;26.55;;